Time,TemperatureF,DewpointF,PressureIn,WindDirection,WindDirectionDegrees,WindSpeedMPH,WindSpeedGustMPH,Humidity,HourlyPrecipIn,Conditions,Clouds,dailyrainin,SoftwareType,DateUTC
2013-05-18 00:00:00,44.8,34.1,17.72,West,267,0.0,0.0,66,0.00,,CLR,0.00,VWS V14.01,2013-05-18 04:00:00,
2013-05-18 00:01:00,44.8,34.1,17.72,West,267,0.0,0.0,66,0.00,,CLR,0.00,VWS V14.01,2013-05-18 04:01:00,
2013-05-18 00:06:00,44.6,34.0,17.72,West,267,0.0,0.0,66,0.00,,CLR,0.00,VWS V14.01,2013-05-18 04:06:00,
2013-05-18 00:11:00,44.6,34.0,17.72,North,353,0.0,0.0,66,0.00,,CLR,0.00,VWS V14.01,2013-05-18 04:11:00,
2013-05-18 00:16:00,44.6,34.3,17.72,North,353,0.0,0.0,67,0.00,,CLR,0.00,VWS V14.01,2013-05-18 04:16:00,
2013-05-18 00:21:00,44.4,34.5,17.72,North,353,0.0,0.0,68,0.00,,CLR,0.00,VWS V14.01,2013-05-18 04:21:00,
2013-05-18 00:26:00,44.4,34.5,17.72,North,353,0.0,0.0,68,0.00,,CLR,0.00,VWS V14.01,2013-05-18 04:26:00,
2013-05-18 00:31:00,44.4,34.5,17.72,North,353,0.0,0.0,68,0.00,,CLR,0.00,VWS V14.01,2013-05-18 04:31:00,
2013-05-18 00:36:00,44.4,34.9,17.72,North,353,0.0,0.0,69,0.00,,CLR,0.00,VWS V14.01,2013-05-18 04:36:00,
2013-05-18 00:41:00,44.4,34.9,17.72,North,353,0.0,0.0,69,0.00,,CLR,0.00,VWS V14.01,2013-05-18 04:41:00,
2013-05-18 00:46:00,44.4,35.3,17.72,North,353,0.0,0.0,70,0.00,,CLR,0.00,VWS V14.01,2013-05-18 04:46:00,
2013-05-18 00:51:00,44.4,35.3,17.72,North,353,0.0,0.0,70,0.00,,CLR,0.00,VWS V14.01,2013-05-18 04:51:00,
2013-05-18 00:56:00,44.4,35.6,17.72,North,353,0.0,0.0,71,0.00,,CLR,0.00,VWS V14.01,2013-05-18 04:56:00,
2013-05-18 01:01:00,44.2,35.5,17.72,North,353,0.0,0.0,71,0.00,,CLR,0.00,VWS V14.01,2013-05-18 05:01:00,
2013-05-18 01:06:00,44.1,35.3,17.72,North,353,0.0,0.0,71,0.00,,CLR,0.00,VWS V14.01,2013-05-18 05:06:00,
2013-05-18 01:11:00,43.7,34.9,17.72,North,353,0.0,0.0,71,0.00,,CLR,0.00,VWS V14.01,2013-05-18 05:11:00,
2013-05-18 01:16:00,43.3,34.6,17.72,North,353,0.0,0.0,71,0.00,,CLR,0.00,VWS V14.01,2013-05-18 05:16:00,
2013-05-18 01:21:00,43.0,34.2,17.72,NNW,348,0.0,0.0,71,0.00,,CLR,0.00,VWS V14.01,2013-05-18 05:21:00,
2013-05-18 01:26:00,42.8,34.1,17.72,NNW,348,0.0,0.0,71,0.00,,CLR,0.00,VWS V14.01,2013-05-18 05:26:00,
2013-05-18 01:31:00,42.6,34.2,17.72,NNW,348,0.0,0.0,72,0.00,,CLR,0.00,VWS V14.01,2013-05-18 05:31:00,
2013-05-18 01:36:00,42.4,34.1,17.72,NNW,348,0.0,0.0,72,0.00,,CLR,0.00,VWS V14.01,2013-05-18 05:36:00,
2013-05-18 01:41:00,42.3,34.2,17.72,NNW,348,0.0,0.0,73,0.00,,CLR,0.00,VWS V14.01,2013-05-18 05:41:00,
2013-05-18 01:46:00,42.3,34.2,17.72,NNW,348,0.0,0.0,73,0.00,,CLR,0.00,VWS V14.01,2013-05-18 05:46:00,
2013-05-18 01:51:00,42.3,34.2,17.72,NNW,348,0.0,0.0,73,0.00,,CLR,0.00,VWS V14.01,2013-05-18 05:51:00,
2013-05-18 01:56:00,42.3,34.6,17.72,NNW,345,0.0,0.0,74,0.00,,CLR,0.00,VWS V14.01,2013-05-18 05:56:00,
2013-05-18 02:01:00,42.4,34.8,17.72,West,273,0.0,0.0,74,0.00,,CLR,0.00,VWS V14.01,2013-05-18 06:01:00,
2013-05-18 02:06:00,42.6,35.3,17.72,West,273,0.0,0.0,75,0.00,,CLR,0.00,VWS V14.01,2013-05-18 06:06:00,
2013-05-18 02:11:00,42.6,35.6,17.72,West,273,0.0,0.0,76,0.00,,CLR,0.00,VWS V14.01,2013-05-18 06:11:00,
2013-05-18 02:16:00,42.4,35.4,17.72,NE,36,0.0,0.0,76,0.00,,CLR,0.00,VWS V14.01,2013-05-18 06:16:00,
2013-05-18 02:21:00,42.1,35.1,17.72,NE,36,0.0,0.0,76,0.00,,CLR,0.00,VWS V14.01,2013-05-18 06:21:00,
2013-05-18 02:26:00,41.7,34.7,17.72,NE,36,0.0,0.0,76,0.00,,CLR,0.00,VWS V14.01,2013-05-18 06:26:00,
2013-05-18 02:31:00,41.4,34.7,17.72,NE,37,0.0,0.0,77,0.00,,CLR,0.00,VWS V14.01,2013-05-18 06:31:00,
2013-05-18 02:36:00,41.0,34.3,17.72,NE,37,0.0,0.0,77,0.00,,CLR,0.00,VWS V14.01,2013-05-18 06:36:00,
2013-05-18 02:41:00,40.8,34.2,17.72,NE,37,0.0,0.0,77,0.00,,CLR,0.00,VWS V14.01,2013-05-18 06:41:00,
2013-05-18 02:46:00,40.6,34.0,17.72,NE,37,0.0,0.0,77,0.00,,CLR,0.00,VWS V14.01,2013-05-18 06:46:00,
2013-05-18 02:51:00,40.5,33.8,17.72,NE,37,0.0,0.0,77,0.00,,CLR,0.00,VWS V14.01,2013-05-18 06:51:00,
2013-05-18 02:56:00,40.6,34.3,17.72,NE,37,0.0,0.0,78,0.00,,CLR,0.00,VWS V14.01,2013-05-18 06:56:00,
2013-05-18 03:01:00,40.6,34.3,17.72,NE,37,0.0,0.0,78,0.00,,CLR,0.00,VWS V14.01,2013-05-18 07:01:00,
2013-05-18 03:06:00,40.6,34.3,17.72,NE,37,0.0,0.0,78,0.00,,CLR,0.00,VWS V14.01,2013-05-18 07:06:00,
2013-05-18 03:11:00,40.6,34.3,17.72,NE,37,0.0,0.0,78,0.00,,CLR,0.00,VWS V14.01,2013-05-18 07:11:00,
2013-05-18 03:16:00,40.6,34.3,17.72,NE,37,0.0,0.0,78,0.00,,CLR,0.00,VWS V14.01,2013-05-18 07:16:00,
2013-05-18 03:21:00,40.6,34.3,17.72,NE,37,0.0,0.0,78,0.00,,CLR,0.00,VWS V14.01,2013-05-18 07:21:00,
2013-05-18 03:26:00,40.6,34.7,17.72,NE,37,0.0,0.0,79,0.00,,CLR,0.00,VWS V14.01,2013-05-18 07:26:00,
2013-05-18 03:31:00,40.5,34.5,17.72,NE,37,0.0,0.0,79,0.00,,CLR,0.00,VWS V14.01,2013-05-18 07:31:00,
2013-05-18 03:36:00,40.3,34.3,17.72,NE,37,0.0,0.0,79,0.00,,CLR,0.00,VWS V14.01,2013-05-18 07:36:00,
2013-05-18 03:41:00,40.3,34.6,17.72,NE,37,0.0,0.0,80,0.00,,CLR,0.00,VWS V14.01,2013-05-18 07:41:00,
2013-05-18 03:46:00,40.1,34.4,17.72,NE,37,0.0,0.0,80,0.00,,CLR,0.00,VWS V14.01,2013-05-18 07:46:00,
2013-05-18 03:51:00,40.1,34.4,17.72,NE,37,0.0,0.0,80,0.00,,CLR,0.00,VWS V14.01,2013-05-18 07:51:00,
2013-05-18 03:56:00,39.9,34.3,17.72,NE,37,0.0,0.0,80,0.00,,CLR,0.00,VWS V14.01,2013-05-18 07:56:00,
2013-05-18 04:01:00,39.9,34.3,17.72,NE,37,0.0,0.0,80,0.00,,CLR,0.00,VWS V14.01,2013-05-18 08:01:00,
2013-05-18 04:06:00,39.7,34.4,17.72,NE,37,0.0,0.0,81,0.00,,CLR,0.00,VWS V14.01,2013-05-18 08:06:00,
2013-05-18 04:11:00,39.7,34.4,17.72,NE,37,0.0,0.0,81,0.00,,CLR,0.00,VWS V14.01,2013-05-18 08:11:00,
2013-05-18 04:16:00,39.6,34.2,17.72,NE,37,0.0,0.0,81,0.00,,CLR,0.00,VWS V14.01,2013-05-18 08:16:00,
2013-05-18 04:21:00,39.6,34.2,17.72,NE,37,0.0,0.0,81,0.00,,CLR,0.00,VWS V14.01,2013-05-18 08:21:00,
2013-05-18 04:26:00,39.4,34.0,17.72,NE,37,0.0,0.0,81,0.00,,CLR,0.00,VWS V14.01,2013-05-18 08:26:00,
2013-05-18 04:31:00,39.2,33.9,17.72,NE,37,0.0,0.0,81,0.00,,CLR,0.00,VWS V14.01,2013-05-18 08:31:00,
2013-05-18 04:36:00,39.0,34.0,17.72,NE,37,0.0,0.0,82,0.00,,CLR,0.00,VWS V14.01,2013-05-18 08:36:00,
2013-05-18 04:41:00,39.0,34.0,17.72,NE,37,0.0,0.0,82,0.00,,CLR,0.00,VWS V14.01,2013-05-18 08:41:00,
2013-05-18 04:46:00,39.0,34.0,17.72,NE,37,0.0,0.0,82,0.00,,CLR,0.00,VWS V14.01,2013-05-18 08:46:00,
2013-05-18 04:51:00,38.8,33.8,17.72,NE,37,0.0,0.0,82,0.00,,CLR,0.00,VWS V14.01,2013-05-18 08:51:00,
2013-05-18 04:56:00,38.8,33.8,17.72,NE,37,0.0,0.0,82,0.00,,CLR,0.00,VWS V14.01,2013-05-18 08:56:00,
2013-05-18 05:01:00,38.8,33.8,17.72,NE,37,0.0,0.0,82,0.00,,CLR,0.00,VWS V14.01,2013-05-18 09:01:00,
2013-05-18 05:06:00,38.7,34.0,17.72,NE,37,0.0,0.0,83,0.00,,CLR,0.00,VWS V14.01,2013-05-18 09:06:00,
2013-05-18 05:11:00,38.7,34.0,17.72,NE,37,0.0,0.0,83,0.00,,CLR,0.00,VWS V14.01,2013-05-18 09:11:00,
2013-05-18 05:16:00,38.7,34.0,17.72,NE,37,0.0,0.0,83,0.00,,CLR,0.00,VWS V14.01,2013-05-18 09:16:00,
2013-05-18 05:21:00,38.7,34.0,17.72,NE,37,0.0,0.0,83,0.00,,CLR,0.00,VWS V14.01,2013-05-18 09:21:00,
2013-05-18 05:26:00,38.7,34.0,17.72,NE,37,0.0,0.0,83,0.00,,CLR,0.00,VWS V14.01,2013-05-18 09:26:00,
2013-05-18 05:31:00,38.7,34.0,17.72,NE,37,0.0,0.0,83,0.00,,CLR,0.00,VWS V14.01,2013-05-18 09:31:00,
2013-05-18 05:36:00,38.7,34.2,17.72,NE,37,0.0,0.0,84,0.00,,CLR,0.00,VWS V14.01,2013-05-18 09:36:00,
2013-05-18 05:41:00,38.8,34.4,17.72,NE,37,0.0,0.0,84,0.00,,CLR,0.00,VWS V14.01,2013-05-18 09:41:00,
2013-05-18 05:46:00,38.8,34.4,17.72,ENE,58,0.0,0.0,84,0.00,,CLR,0.00,VWS V14.01,2013-05-18 09:46:00,
2013-05-18 05:51:00,39.0,34.6,17.72,ENE,58,0.0,0.0,84,0.00,,CLR,0.00,VWS V14.01,2013-05-18 09:51:00,
2013-05-18 05:56:00,39.0,34.9,17.72,ENE,58,0.0,0.0,85,0.00,,CLR,0.00,VWS V14.01,2013-05-18 09:56:00,
2013-05-18 06:01:00,39.2,35.1,17.72,NE,51,0.0,0.0,85,0.00,,CLR,0.00,VWS V14.01,2013-05-18 10:01:00,
2013-05-18 06:06:00,39.7,35.6,17.72,NE,51,0.0,0.0,85,0.00,,CLR,0.00,VWS V14.01,2013-05-18 10:06:00,
2013-05-18 06:11:00,40.1,36.0,17.72,NE,51,0.0,0.0,85,0.00,,CLR,0.00,VWS V14.01,2013-05-18 10:11:00,
2013-05-18 06:16:00,40.5,36.3,17.72,NE,51,0.0,0.0,85,0.00,,CLR,0.00,VWS V14.01,2013-05-18 10:16:00,
2013-05-18 06:21:00,40.8,37.0,17.72,NE,51,0.0,0.0,86,0.00,,CLR,0.00,VWS V14.01,2013-05-18 10:21:00,
2013-05-18 06:26:00,41.0,36.8,17.72,NE,51,0.0,0.0,85,0.00,,CLR,0.00,VWS V14.01,2013-05-18 10:26:00,
2013-05-18 06:31:00,41.2,37.0,17.72,NE,51,0.0,0.0,85,0.00,,CLR,0.00,VWS V14.01,2013-05-18 10:31:00,
2013-05-18 06:36:00,41.2,37.3,17.72,NE,51,0.0,0.0,86,0.00,,CLR,0.00,VWS V14.01,2013-05-18 10:36:00,
2013-05-18 06:41:00,41.4,37.5,17.72,NE,51,0.0,0.0,86,0.00,,CLR,0.00,VWS V14.01,2013-05-18 10:41:00,
2013-05-18 06:46:00,41.7,37.8,17.72,NE,51,0.0,0.0,86,0.00,,CLR,0.00,VWS V14.01,2013-05-18 10:46:00,
2013-05-18 06:51:00,42.3,38.4,17.72,NE,51,0.0,0.0,86,0.00,,CLR,0.00,VWS V14.01,2013-05-18 10:51:00,
2013-05-18 06:56:00,43.0,39.1,17.72,NE,51,0.0,0.0,86,0.00,,CLR,0.00,VWS V14.01,2013-05-18 10:56:00,
2013-05-18 07:01:00,43.5,39.6,17.72,NE,51,0.0,0.0,86,0.00,,CLR,0.00,VWS V14.01,2013-05-18 11:01:00,
2013-05-18 07:06:00,44.1,40.5,17.72,NE,52,0.0,0.0,87,0.00,,CLR,0.00,VWS V14.01,2013-05-18 11:06:00,
2013-05-18 07:11:00,44.4,40.8,17.72,NE,56,0.0,0.0,87,0.00,,CLR,0.00,VWS V14.01,2013-05-18 11:11:00,
2013-05-18 07:16:00,44.8,40.9,17.72,ENE,71,0.0,0.0,86,0.00,,CLR,0.00,VWS V14.01,2013-05-18 11:16:00,
2013-05-18 07:21:00,45.1,41.2,17.72,NE,54,0.0,0.0,86,0.00,,CLR,0.00,VWS V14.01,2013-05-18 11:21:00,
2013-05-18 07:26:00,45.7,41.4,17.72,NE,56,0.0,0.0,85,0.00,,CLR,0.00,VWS V14.01,2013-05-18 11:26:00,
2013-05-18 07:31:00,46.2,42.0,17.72,NE,56,0.0,0.0,85,0.00,,CLR,0.00,VWS V14.01,2013-05-18 11:31:00,
2013-05-18 07:36:00,47.1,42.5,17.72,NE,56,0.0,0.0,84,0.00,,CLR,0.00,VWS V14.01,2013-05-18 11:36:00,
2013-05-18 07:41:00,48.0,43.1,17.72,East,98,0.0,0.0,83,0.00,,CLR,0.00,VWS V14.01,2013-05-18 11:41:00,
2013-05-18 07:46:00,48.7,43.2,17.72,East,98,0.0,0.0,81,0.00,,CLR,0.00,VWS V14.01,2013-05-18 11:46:00,
2013-05-18 07:51:00,49.8,43.9,17.72,NE,51,0.0,2.2,80,0.00,,CLR,0.00,VWS V14.01,2013-05-18 11:51:00,
2013-05-18 07:56:00,50.9,44.0,17.72,ENE,72,0.0,0.0,77,0.00,,CLR,0.00,VWS V14.01,2013-05-18 11:56:00,
2013-05-18 08:01:00,52.3,44.3,17.72,ENE,62,0.0,0.0,74,0.00,,CLR,0.00,VWS V14.01,2013-05-18 12:01:00,
2013-05-18 08:06:00,53.8,44.2,17.72,ENE,61,0.0,0.0,70,0.00,,CLR,0.00,VWS V14.01,2013-05-18 12:06:00,
2013-05-18 08:11:00,55.0,43.1,17.72,ENE,71,0.0,0.0,64,0.00,,CLR,0.00,VWS V14.01,2013-05-18 12:11:00,
2013-05-18 08:16:00,55.8,40.8,17.72,East,97,0.0,0.0,57,0.00,,CLR,0.00,VWS V14.01,2013-05-18 12:16:00,
2013-05-18 08:21:00,55.8,37.4,17.72,ENE,64,0.0,0.0,50,0.00,,CLR,0.00,VWS V14.01,2013-05-18 12:21:00,
2013-05-18 08:26:00,56.5,37.6,17.72,NE,39,0.0,0.0,49,0.00,,CLR,0.00,VWS V14.01,2013-05-18 12:26:00,
2013-05-18 08:31:00,57.0,38.1,17.72,NE,34,0.0,0.0,49,0.00,,CLR,0.00,VWS V14.01,2013-05-18 12:31:00,
2013-05-18 08:36:00,57.7,38.2,17.72,ESE,102,0.0,0.0,48,0.00,,CLR,0.00,VWS V14.01,2013-05-18 12:36:00,
2013-05-18 08:41:00,58.5,38.3,17.72,SE,146,0.0,0.0,47,0.00,,CLR,0.00,VWS V14.01,2013-05-18 12:41:00,
2013-05-18 08:46:00,58.3,35.9,17.72,East,84,0.0,0.0,43,0.00,,CLR,0.00,VWS V14.01,2013-05-18 12:46:00,
2013-05-18 08:51:00,58.8,35.8,17.72,NNE,21,4.5,4.5,42,0.00,,CLR,0.00,VWS V14.01,2013-05-18 12:51:00,
2013-05-18 08:56:00,59.4,36.3,17.72,NNE,22,0.0,0.0,42,0.00,,CLR,0.00,VWS V14.01,2013-05-18 12:56:00,
2013-05-18 09:01:00,59.4,35.1,17.72,North,7,0.0,2.2,40,0.00,,BKN100,0.00,VWS V14.01,2013-05-18 13:01:00,
2013-05-18 09:06:00,59.5,34.6,17.72,NW,320,0.0,0.0,39,0.00,,BKN100,0.00,VWS V14.01,2013-05-18 13:06:00,
2013-05-18 09:11:00,59.5,34.6,17.72,North,357,0.0,2.2,39,0.00,,BKN100,0.00,VWS V14.01,2013-05-18 13:11:00,
2013-05-18 09:16:00,59.4,33.8,17.72,NE,36,0.0,0.0,38,0.00,,BKN100,0.00,VWS V14.01,2013-05-18 13:16:00,
2013-05-18 09:21:00,59.2,33.6,17.72,North,0,0.0,0.0,38,0.00,,BKN100,0.00,VWS V14.01,2013-05-18 13:21:00,
2013-05-18 09:26:00,59.9,34.9,17.72,East,101,5.4,5.4,39,0.00,,BKN100,0.00,VWS V14.01,2013-05-18 13:26:00,
2013-05-18 09:31:00,59.7,33.4,17.72,SE,138,0.0,0.0,37,0.00,,BKN100,0.00,VWS V14.01,2013-05-18 13:31:00,
2013-05-18 09:36:00,60.4,35.4,17.72,North,353,0.0,0.0,39,0.00,,BKN100,0.00,VWS V14.01,2013-05-18 13:36:00,
2013-05-18 09:41:00,60.6,34.9,17.72,ESE,109,0.0,0.0,38,0.00,,BKN100,0.00,VWS V14.01,2013-05-18 13:41:00,
2013-05-18 09:46:00,61.0,35.9,17.72,East,100,0.0,0.0,39,0.00,,BKN100,0.00,VWS V14.01,2013-05-18 13:46:00,
2013-05-18 09:51:00,61.3,34.9,17.72,NNW,334,4.5,4.5,37,0.00,,BKN100,0.00,VWS V14.01,2013-05-18 13:51:00,
2013-05-18 09:56:00,61.5,34.3,17.72,ESE,114,4.5,4.5,36,0.00,,BKN100,0.00,VWS V14.01,2013-05-18 13:56:00,
2013-05-18 10:01:00,61.7,35.2,17.72,SW,227,5.4,5.4,37,0.00,,SCT100,0.00,VWS V14.01,2013-05-18 14:01:00,
2013-05-18 10:06:00,61.3,34.2,17.72,WSW,250,4.5,4.5,36,0.00,,SCT100,0.00,VWS V14.01,2013-05-18 14:06:00,
2013-05-18 10:11:00,61.3,34.2,17.72,SW,231,0.0,0.0,36,0.00,,SCT100,0.00,VWS V14.01,2013-05-18 14:11:00,
2013-05-18 10:16:00,61.5,35.0,17.72,SW,233,7.2,7.2,37,0.00,,SCT100,0.00,VWS V14.01,2013-05-18 14:16:00,
2013-05-18 10:21:00,61.3,34.2,17.72,SW,228,4.5,4.5,36,0.00,,SCT100,0.00,VWS V14.01,2013-05-18 14:21:00,
2013-05-18 10:26:00,61.2,34.0,17.72,SSW,211,5.4,5.4,36,0.00,,SCT100,0.00,VWS V14.01,2013-05-18 14:26:00,
2013-05-18 10:31:00,61.3,34.2,17.72,West,261,6.3,6.3,36,0.00,,SCT100,0.00,VWS V14.01,2013-05-18 14:31:00,
2013-05-18 10:36:00,61.5,34.3,17.72,NE,39,0.0,0.0,36,0.00,,SCT100,0.00,VWS V14.01,2013-05-18 14:36:00,
2013-05-18 10:41:00,62.2,35.0,17.72,SW,229,5.4,5.4,36,0.00,,SCT100,0.00,VWS V14.01,2013-05-18 14:41:00,
2013-05-18 10:46:00,62.2,35.0,17.72,WSW,244,7.2,7.2,36,0.00,,SCT100,0.00,VWS V14.01,2013-05-18 14:46:00,
2013-05-18 10:51:00,61.9,34.7,17.72,South,187,0.0,0.0,36,0.00,,SCT100,0.00,VWS V14.01,2013-05-18 14:51:00,
2013-05-18 10:56:00,62.2,35.0,17.72,NW,311,0.0,0.0,36,0.00,,SCT100,0.00,VWS V14.01,2013-05-18 14:56:00,
2013-05-18 11:01:00,63.0,34.9,17.72,WNW,296,0.0,0.0,35,0.00,,CLR,0.00,VWS V14.01,2013-05-18 15:01:00,
2013-05-18 11:06:00,63.0,34.2,17.72,SSW,212,0.0,0.0,34,0.00,,CLR,0.00,VWS V14.01,2013-05-18 15:06:00,
2013-05-18 11:11:00,63.3,34.5,17.72,NE,42,5.4,5.4,34,0.00,,CLR,0.00,VWS V14.01,2013-05-18 15:11:00,
2013-05-18 11:16:00,63.9,35.0,17.72,SSE,165,7.2,7.2,34,0.00,,CLR,0.00,VWS V14.01,2013-05-18 15:16:00,
2013-05-18 11:21:00,63.9,36.4,17.72,NE,45,6.3,6.3,36,0.00,,CLR,0.00,VWS V14.01,2013-05-18 15:21:00,
2013-05-18 11:26:00,64.2,36.0,17.72,ESE,118,6.3,6.3,35,0.00,,CLR,0.00,VWS V14.01,2013-05-18 15:26:00,
2013-05-18 11:31:00,64.8,37.2,17.72,East,94,0.0,0.0,36,0.00,,CLR,0.00,VWS V14.01,2013-05-18 15:31:00,
2013-05-18 11:36:00,65.5,37.8,17.72,WSW,257,4.5,4.5,36,0.00,,CLR,0.00,VWS V14.01,2013-05-18 15:36:00,
2013-05-18 11:41:00,66.0,36.9,17.72,SW,234,0.0,0.0,34,0.00,,CLR,0.00,VWS V14.01,2013-05-18 15:41:00,
2013-05-18 11:46:00,65.5,36.4,17.72,NE,39,0.0,0.0,34,0.00,,CLR,0.00,VWS V14.01,2013-05-18 15:46:00,
2013-05-18 11:51:00,65.7,36.6,17.72,NNE,17,6.3,6.3,34,0.00,,CLR,0.00,VWS V14.01,2013-05-18 15:51:00,
2013-05-18 11:56:00,66.0,36.9,17.72,NNW,329,6.3,6.3,34,0.00,,CLR,0.00,VWS V14.01,2013-05-18 15:56:00,
2013-05-18 12:01:00,65.8,36.0,17.72,ESE,102,5.4,5.4,33,0.00,,CLR,0.00,VWS V14.01,2013-05-18 16:01:00,
2013-05-18 12:06:00,66.4,36.4,17.72,SSW,202,6.3,6.3,33,0.00,,CLR,0.00,VWS V14.01,2013-05-18 16:06:00,
2013-05-18 12:12:00,65.8,36.7,17.72,SE,146,6.3,6.3,34,0.00,,CLR,0.00,VWS V14.01,2013-05-18 16:12:00,
2013-05-18 12:17:00,64.9,35.9,17.72,ESE,106,10.7,10.7,34,0.00,,CLR,0.00,VWS V14.01,2013-05-18 16:17:00,
2013-05-18 12:22:00,64.8,36.5,17.72,South,186,0.0,0.0,35,0.00,,CLR,0.00,VWS V14.01,2013-05-18 16:22:00,
2013-05-18 12:27:00,64.4,36.2,17.72,SW,236,0.0,0.0,35,0.00,,CLR,0.00,VWS V14.01,2013-05-18 16:27:00,
2013-05-18 12:32:00,63.7,36.2,17.72,NE,48,4.5,4.5,36,0.00,,CLR,0.00,VWS V14.01,2013-05-18 16:32:00,
2013-05-18 12:37:00,63.9,36.4,17.72,ESE,123,11.6,11.6,36,0.00,,CLR,0.00,VWS V14.01,2013-05-18 16:37:00,
2013-05-18 12:42:00,64.6,37.8,17.72,South,177,11.6,11.6,37,0.00,,CLR,0.00,VWS V14.01,2013-05-18 16:42:00,
2013-05-18 12:47:00,65.5,38.5,17.72,East,91,5.4,5.4,37,0.00,,CLR,0.00,VWS V14.01,2013-05-18 16:47:00,
2013-05-18 12:52:00,65.8,38.2,17.72,SW,227,14.3,14.3,36,0.00,,CLR,0.00,VWS V14.01,2013-05-18 16:52:00,
2013-05-18 12:57:00,65.8,40.2,17.72,NNE,22,8.1,8.1,39,0.00,,CLR,0.00,VWS V14.01,2013-05-18 16:57:00,
2013-05-18 13:02:00,65.1,38.9,17.72,ESE,112,0.0,0.0,38,0.00,,CLR,0.00,VWS V14.01,2013-05-18 17:02:00,
2013-05-18 13:07:00,64.4,36.9,17.72,SSW,213,6.3,6.3,36,0.00,,CLR,0.00,VWS V14.01,2013-05-18 17:07:00,
2013-05-18 13:12:00,63.9,37.8,17.72,East,92,5.4,5.4,38,0.00,,CLR,0.00,VWS V14.01,2013-05-18 17:12:00,
2013-05-18 13:17:00,63.5,36.1,17.72,South,169,7.2,7.2,36,0.00,,CLR,0.00,VWS V14.01,2013-05-18 17:17:00,
2013-05-18 13:22:00,61.9,35.3,17.72,SSE,147,5.4,5.4,37,0.00,,CLR,0.00,VWS V14.01,2013-05-18 17:22:00,
2013-05-18 13:27:00,61.3,34.9,17.72,SW,215,0.0,0.0,37,0.00,,CLR,0.00,VWS V14.01,2013-05-18 17:27:00,
2013-05-18 13:32:00,61.2,35.4,17.72,SW,220,0.0,0.0,38,0.00,,CLR,0.00,VWS V14.01,2013-05-18 17:32:00,
2013-05-18 13:37:00,61.0,35.2,17.72,ESE,110,10.7,10.7,38,0.00,,CLR,0.00,VWS V14.01,2013-05-18 17:37:00,
2013-05-18 13:42:00,61.0,36.5,17.72,East,94,5.4,5.4,40,0.00,,CLR,0.00,VWS V14.01,2013-05-18 17:42:00,
2013-05-18 13:47:00,61.3,36.8,17.72,SSE,164,5.4,5.4,40,0.00,,CLR,0.00,VWS V14.01,2013-05-18 17:47:00,
2013-05-18 13:52:00,62.4,38.4,17.72,ESE,110,7.2,7.2,41,0.00,,CLR,0.00,VWS V14.01,2013-05-18 17:52:00,
2013-05-18 13:57:00,63.0,36.3,17.72,SE,130,7.2,7.2,37,0.00,,CLR,0.00,VWS V14.01,2013-05-18 17:57:00,
2013-05-18 14:02:00,63.5,36.8,17.72,ESE,110,7.2,7.2,37,0.00,,CLR,0.00,VWS V14.01,2013-05-18 18:02:00,
2013-05-18 14:07:00,63.3,35.2,17.72,West,261,0.0,3.1,35,0.00,,CLR,0.00,VWS V14.01,2013-05-18 18:07:00,
2013-05-18 14:12:00,61.7,34.5,17.72,SE,125,0.0,4.0,36,0.00,,CLR,0.00,VWS V14.01,2013-05-18 18:12:00,
2013-05-18 14:17:00,61.7,36.5,17.72,West,273,5.4,5.4,39,0.00,,CLR,0.00,VWS V14.01,2013-05-18 18:17:00,
2013-05-18 14:22:00,63.0,38.3,17.72,West,264,7.2,7.2,40,0.00,,CLR,0.00,VWS V14.01,2013-05-18 18:22:00,
2013-05-18 14:27:00,62.6,36.0,17.72,SE,125,9.8,9.8,37,0.00,,CLR,0.00,VWS V14.01,2013-05-18 18:27:00,
2013-05-18 14:32:00,61.7,36.5,17.72,SE,134,5.4,5.4,39,0.00,,CLR,0.00,VWS V14.01,2013-05-18 18:32:00,
2013-05-18 14:37:00,61.0,35.9,17.72,SW,217,0.0,2.7,39,0.00,,CLR,0.00,VWS V14.01,2013-05-18 18:37:00,
2013-05-18 14:42:00,60.8,36.3,17.72,ENE,67,8.1,8.1,40,0.00,,CLR,0.00,VWS V14.01,2013-05-18 18:42:00,
2013-05-18 14:47:00,61.9,38.6,17.72,South,178,6.3,6.3,42,0.00,,CLR,0.00,VWS V14.01,2013-05-18 18:47:00,
2013-05-18 14:52:00,62.6,36.7,17.72,SSE,162,7.2,7.2,38,0.00,,CLR,0.00,VWS V14.01,2013-05-18 18:52:00,
2013-05-18 14:57:00,62.6,39.2,17.72,East,92,0.0,0.0,42,0.00,,CLR,0.00,VWS V14.01,2013-05-18 18:57:00,
2013-05-18 15:02:00,62.4,38.4,17.72,South,184,0.0,0.0,41,0.00,,BKN080,0.00,VWS V14.01,2013-05-18 19:02:00,
2013-05-18 15:07:00,62.1,36.2,17.72,SSW,204,8.9,8.9,38,0.00,,BKN080,0.00,VWS V14.01,2013-05-18 19:07:00,
2013-05-18 15:12:00,60.8,35.7,17.72,ESE,113,5.4,5.4,39,0.00,,BKN080,0.00,VWS V14.01,2013-05-18 19:12:00,
2013-05-18 15:17:00,60.4,36.0,17.72,ESE,109,4.5,4.5,40,0.00,,BKN080,0.00,VWS V14.01,2013-05-18 19:17:00,
2013-05-18 15:22:00,59.7,36.0,17.72,East,85,0.0,3.6,41,0.00,,BKN080,0.00,VWS V14.01,2013-05-18 19:22:00,
2013-05-18 15:27:00,59.7,35.4,17.72,SW,233,8.1,8.1,40,0.00,,BKN080,0.00,VWS V14.01,2013-05-18 19:27:00,
2013-05-18 15:32:00,59.2,34.3,17.72,SE,146,6.3,6.3,39,0.00,,BKN080,0.00,VWS V14.01,2013-05-18 19:32:00,
2013-05-18 15:37:00,59.0,34.7,17.72,SE,140,6.3,6.3,40,0.00,,BKN080,0.00,VWS V14.01,2013-05-18 19:37:00,
2013-05-18 15:42:00,58.6,33.8,17.72,SSW,202,7.2,7.2,39,0.00,,BKN080,0.00,VWS V14.01,2013-05-18 19:42:00,
2013-05-18 15:47:00,57.9,33.1,17.72,SSE,149,5.4,5.4,39,0.00,,BKN080,0.00,VWS V14.01,2013-05-18 19:47:00,
2013-05-18 15:52:00,57.2,32.5,17.72,SSW,203,4.5,4.5,39,0.00,,BKN080,0.00,VWS V14.01,2013-05-18 19:52:00,
2013-05-18 15:57:00,56.3,32.9,17.72,SSW,194,8.1,8.1,41,0.00,,BKN080,0.00,VWS V14.01,2013-05-18 19:57:00,
2013-05-18 16:02:00,55.8,33.6,17.72,West,266,9.8,9.8,43,0.00,,BKN065,0.00,VWS V14.01,2013-05-18 20:02:00,
2013-05-18 16:07:00,55.9,34.9,17.72,South,185,5.4,5.4,45,0.00,,BKN065,0.00,VWS V14.01,2013-05-18 20:07:00,
2013-05-18 16:12:00,56.7,35.0,17.72,WSW,252,6.3,6.3,44,0.00,,BKN065,0.00,VWS V14.01,2013-05-18 20:12:00,
2013-05-18 16:17:00,57.0,36.5,17.72,East,83,7.2,7.2,46,0.00,,BKN065,0.00,VWS V14.01,2013-05-18 20:17:00,
2013-05-18 16:22:00,57.2,36.1,17.72,SSE,149,7.2,7.2,45,0.00,,BKN065,0.00,VWS V14.01,2013-05-18 20:22:00,
2013-05-18 16:27:00,56.7,35.0,17.72,SE,142,7.2,7.2,44,0.00,,BKN065,0.00,VWS V14.01,2013-05-18 20:27:00,
2013-05-18 16:32:00,56.3,32.9,17.72,SE,144,6.3,6.3,41,0.00,,BKN065,0.00,VWS V14.01,2013-05-18 20:32:00,
2013-05-18 16:37:00,55.9,33.8,17.72,ESE,110,5.4,5.4,43,0.00,,BKN065,0.00,VWS V14.01,2013-05-18 20:37:00,
2013-05-18 16:42:00,55.9,33.8,17.72,East,97,5.4,5.4,43,0.00,,BKN065,0.00,VWS V14.01,2013-05-18 20:42:00,
2013-05-18 16:47:00,55.9,33.8,17.72,ESE,108,0.0,3.1,43,0.00,,BKN065,0.00,VWS V14.01,2013-05-18 20:47:00,
2013-05-18 16:52:00,56.1,35.1,17.72,SSW,211,5.4,5.4,45,0.00,,BKN065,0.00,VWS V14.01,2013-05-18 20:52:00,
2013-05-18 16:57:00,56.3,34.7,17.72,South,173,7.2,7.2,44,0.00,,BKN065,0.00,VWS V14.01,2013-05-18 20:57:00,
2013-05-18 17:02:00,55.9,34.9,17.72,WSW,240,8.1,8.1,45,0.00,,CLR,0.00,VWS V14.01,2013-05-18 21:02:00,
2013-05-18 17:07:00,55.6,34.0,17.72,South,175,7.2,7.2,44,0.00,,CLR,0.00,VWS V14.01,2013-05-18 21:07:00,
2013-05-18 17:12:00,55.0,34.1,17.72,SSE,155,5.4,5.4,45,0.00,,CLR,0.00,VWS V14.01,2013-05-18 21:12:00,
2013-05-18 17:17:00,55.0,35.2,17.72,SE,143,5.4,5.4,47,0.00,,CLR,0.00,VWS V14.01,2013-05-18 21:17:00,
2013-05-18 17:22:00,54.9,34.5,17.72,SSW,194,0.0,0.0,46,0.00,,CLR,0.00,VWS V14.01,2013-05-18 21:22:00,
2013-05-18 17:27:00,54.5,34.2,17.72,ESE,122,0.0,0.0,46,0.00,,CLR,0.00,VWS V14.01,2013-05-18 21:27:00,
2013-05-18 17:32:00,54.3,34.0,17.72,NNE,28,0.0,2.2,46,0.00,,CLR,0.00,VWS V14.01,2013-05-18 21:32:00,
2013-05-18 17:37:00,54.1,33.8,17.72,South,179,0.0,0.0,46,0.00,,CLR,0.00,VWS V14.01,2013-05-18 21:37:00,
2013-05-18 17:42:00,53.6,33.3,17.72,South,169,4.5,4.5,46,0.00,,CLR,0.00,VWS V14.01,2013-05-18 21:42:00,
2013-05-18 17:47:00,53.1,32.8,17.72,South,174,0.0,3.6,46,0.00,,CLR,0.00,VWS V14.01,2013-05-18 21:47:00,
2013-05-18 17:52:00,53.1,33.9,17.72,SSW,213,0.0,0.0,48,0.00,,CLR,0.00,VWS V14.01,2013-05-18 21:52:00,
2013-05-18 17:57:00,52.9,34.3,17.72,SSW,202,0.0,3.1,49,0.00,,CLR,0.00,VWS V14.01,2013-05-18 21:57:00,
2013-05-18 18:02:00,52.9,34.8,17.72,SSW,196,5.4,5.4,50,0.00,,SCT110,0.00,VWS V14.01,2013-05-18 22:02:00,
2013-05-18 18:07:00,52.9,34.3,17.72,SW,233,5.4,5.4,49,0.00,,SCT110,0.00,VWS V14.01,2013-05-18 22:07:00,
2013-05-18 18:12:00,53.2,34.6,17.72,SSE,156,0.0,0.0,49,0.00,,SCT110,0.00,VWS V14.01,2013-05-18 22:12:00,
2013-05-18 18:17:00,53.2,34.6,17.72,SW,221,0.0,0.0,49,0.00,,SCT110,0.00,VWS V14.01,2013-05-18 22:17:00,
2013-05-18 18:22:00,53.1,34.4,17.72,SE,145,0.0,0.0,49,0.00,,SCT110,0.00,VWS V14.01,2013-05-18 22:22:00,
2013-05-18 18:27:00,52.7,34.1,17.72,South,189,0.0,0.0,49,0.00,,SCT110,0.00,VWS V14.01,2013-05-18 22:27:00,
2013-05-18 18:32:00,52.2,34.1,17.72,SE,124,8.1,8.1,50,0.00,,SCT110,0.00,VWS V14.01,2013-05-18 22:32:00,
2013-05-18 18:37:00,51.8,33.8,17.72,SE,145,0.0,0.0,50,0.00,,SCT110,0.00,VWS V14.01,2013-05-18 22:37:00,
2013-05-18 18:42:00,51.6,34.1,17.72,NNE,31,5.4,5.4,51,0.00,,SCT110,0.00,VWS V14.01,2013-05-18 22:42:00,
2013-05-18 18:47:00,51.6,34.1,17.72,South,187,0.0,0.0,51,0.00,,SCT110,0.00,VWS V14.01,2013-05-18 22:47:00,
2013-05-18 18:52:00,51.4,33.9,17.72,ESE,122,0.0,0.0,51,0.00,,SCT110,0.00,VWS V14.01,2013-05-18 22:52:00,
2013-05-18 18:57:00,51.3,33.8,17.72,SW,228,0.0,0.0,51,0.00,,SCT110,0.00,VWS V14.01,2013-05-18 22:57:00,
2013-05-18 19:02:00,50.9,33.4,17.72,South,170,0.0,2.2,51,0.00,,BKN100,0.00,VWS V14.01,2013-05-18 23:02:00,
2013-05-18 19:07:00,50.7,33.8,17.72,East,98,0.0,3.1,52,0.00,,BKN100,0.00,VWS V14.01,2013-05-18 23:07:00,
2013-05-18 19:12:00,50.7,34.2,17.72,SSW,209,0.0,0.0,53,0.00,,BKN100,0.00,VWS V14.01,2013-05-18 23:12:00,
2013-05-18 19:17:00,50.5,34.1,17.72,SW,226,0.0,0.0,53,0.00,,BKN100,0.00,VWS V14.01,2013-05-18 23:17:00,
2013-05-18 19:22:00,50.4,33.9,17.72,SE,140,0.0,0.0,53,0.00,,BKN100,0.00,VWS V14.01,2013-05-18 23:22:00,
2013-05-18 19:27:00,50.2,33.7,17.72,SSE,168,0.0,0.0,53,0.00,,BKN100,0.00,VWS V14.01,2013-05-18 23:27:00,
2013-05-18 19:32:00,50.2,34.2,17.72,ESE,103,0.0,0.0,54,0.00,,BKN100,0.00,VWS V14.01,2013-05-18 23:32:00,
2013-05-18 19:37:00,49.8,34.3,17.72,East,82,0.0,0.0,55,0.00,,BKN100,0.00,VWS V14.01,2013-05-18 23:37:00,
2013-05-18 19:42:00,49.6,34.6,17.72,ESE,111,0.0,0.0,56,0.00,,BKN100,0.00,VWS V14.01,2013-05-18 23:42:00,
2013-05-18 19:47:00,49.3,34.3,17.72,ESE,122,0.0,0.0,56,0.00,,BKN100,0.00,VWS V14.01,2013-05-18 23:47:00,
2013-05-18 19:52:00,49.1,34.1,17.72,SSW,208,0.0,2.2,56,0.00,,BKN100,0.00,VWS V14.01,2013-05-18 23:52:00,
2013-05-18 19:57:00,48.9,33.9,17.72,SE,141,0.0,0.0,56,0.00,,BKN100,0.00,VWS V14.01,2013-05-18 23:57:00,
2013-05-18 20:02:00,48.9,34.4,17.72,SSW,207,0.0,2.7,57,0.00,,OVC090,0.00,VWS V14.01,2013-05-19 00:02:00,
2013-05-18 20:07:00,48.9,34.8,17.72,SSW,203,0.0,0.0,58,0.00,,OVC090,0.00,VWS V14.01,2013-05-19 00:07:00,
2013-05-18 20:12:00,48.7,35.9,17.72,SSE,159,4.5,4.5,61,0.00,,OVC090,0.00,VWS V14.01,2013-05-19 00:12:00,
2013-05-18 20:17:00,48.7,35.9,17.72,SE,132,0.0,0.0,61,0.00,,OVC090,0.00,VWS V14.01,2013-05-19 00:17:00,
2013-05-18 20:22:00,48.7,35.9,17.72,SE,132,0.0,0.0,61,0.00,,OVC090,0.00,VWS V14.01,2013-05-19 00:22:00,
2013-05-18 20:27:00,48.7,37.1,17.72,SW,215,0.0,0.0,64,0.00,,OVC090,0.00,VWS V14.01,2013-05-19 00:27:00,
2013-05-18 20:32:00,48.6,37.3,17.72,SW,234,0.0,2.2,65,0.00,,OVC090,0.00,VWS V14.01,2013-05-19 00:32:00,
2013-05-18 20:37:00,48.4,37.6,17.72,SW,234,0.0,0.0,66,0.00,,OVC090,0.00,VWS V14.01,2013-05-19 00:37:00,
2013-05-18 20:42:00,48.2,37.4,17.72,SW,230,0.0,0.0,66,0.00,,OVC090,0.00,VWS V14.01,2013-05-19 00:42:00,
2013-05-18 20:47:00,48.0,38.0,17.72,SSW,207,0.0,0.0,68,0.00,,OVC090,0.00,VWS V14.01,2013-05-19 00:47:00,
2013-05-18 20:52:00,48.0,38.3,17.72,South,172,0.0,0.0,69,0.00,,OVC090,0.00,VWS V14.01,2013-05-19 00:52:00,
2013-05-18 20:57:00,47.8,38.2,17.72,South,185,0.0,0.0,69,0.00,,OVC090,0.00,VWS V14.01,2013-05-19 00:57:00,
2013-05-18 21:02:00,47.8,38.5,17.72,SSW,210,0.0,0.0,70,0.00,,OVC080,0.00,VWS V14.01,2013-05-19 01:02:00,
2013-05-18 21:07:00,47.8,38.9,17.72,SW,225,0.0,0.0,71,0.00,,OVC080,0.00,VWS V14.01,2013-05-19 01:07:00,
2013-05-18 21:12:00,47.7,38.7,17.72,ESE,123,0.0,0.0,71,0.00,,OVC080,0.00,VWS V14.01,2013-05-19 01:12:00,
2013-05-18 21:17:00,47.7,39.1,17.72,NE,54,0.0,0.0,72,0.00,,OVC080,0.00,VWS V14.01,2013-05-19 01:17:00,
2013-05-18 21:22:00,47.7,39.1,17.72,SSW,206,0.0,0.0,72,0.00,,OVC080,0.00,VWS V14.01,2013-05-19 01:22:00,
2013-05-18 21:27:00,47.5,39.3,17.72,WSW,240,5.4,5.4,73,0.00,,OVC080,0.00,VWS V14.01,2013-05-19 01:27:00,
2013-05-18 21:32:00,47.5,39.6,17.72,West,262,0.0,0.0,74,0.00,,OVC080,0.00,VWS V14.01,2013-05-19 01:32:00,
2013-05-18 21:37:00,47.5,39.6,17.72,WSW,246,0.0,0.0,74,0.00,,OVC080,0.00,VWS V14.01,2013-05-19 01:37:00,
2013-05-18 21:42:00,47.3,39.5,17.72,WSW,246,0.0,0.0,74,0.00,,OVC080,0.00,VWS V14.01,2013-05-19 01:42:00,
2013-05-18 21:47:00,47.3,39.5,17.72,WSW,246,0.0,0.0,74,0.00,,OVC080,0.00,VWS V14.01,2013-05-19 01:47:00,
2013-05-18 21:52:00,47.1,39.3,17.72,WSW,246,0.0,0.0,74,0.00,,OVC080,0.00,VWS V14.01,2013-05-19 01:52:00,
2013-05-18 21:57:00,46.9,39.4,17.72,SW,234,0.0,0.0,75,0.00,,OVC080,0.00,VWS V14.01,2013-05-19 01:57:00,
2013-05-18 22:02:00,46.8,39.3,17.72,SSW,204,0.0,0.0,75,0.00,,FEW110,0.00,VWS V14.01,2013-05-19 02:02:00,
2013-05-18 22:07:00,46.6,39.1,17.72,South,188,0.0,0.0,75,0.00,,FEW110,0.00,VWS V14.01,2013-05-19 02:07:00,
2013-05-18 22:12:00,46.4,38.9,17.72,South,188,0.0,0.0,75,0.00,,FEW110,0.00,VWS V14.01,2013-05-19 02:12:00,
2013-05-18 22:17:00,46.4,38.9,17.72,South,189,0.0,0.0,75,0.00,,FEW110,0.00,VWS V14.01,2013-05-19 02:17:00,
2013-05-18 22:22:00,46.2,39.1,17.72,SSW,193,0.0,0.0,76,0.00,,FEW110,0.00,VWS V14.01,2013-05-19 02:22:00,
2013-05-18 22:27:00,46.2,39.1,17.72,SSW,193,0.0,0.0,76,0.00,,FEW110,0.00,VWS V14.01,2013-05-19 02:27:00,
2013-05-18 22:31:00,46.0,39.2,17.72,SSW,193,0.0,0.0,77,0.00,,FEW110,0.00,VWS V14.01,2013-05-19 02:31:00,
2013-05-18 22:36:00,46.0,39.2,17.72,SSW,193,0.0,0.0,77,0.00,,FEW110,0.00,VWS V14.01,2013-05-19 02:36:00,
2013-05-18 22:41:00,46.0,39.6,17.72,SSW,193,0.0,0.0,78,0.00,,FEW110,0.00,VWS V14.01,2013-05-19 02:41:00,
2013-05-18 22:47:00,46.0,39.6,17.72,SSW,193,0.0,0.0,78,0.00,,FEW110,0.00,VWS V14.01,2013-05-19 02:47:00,
2013-05-18 22:51:00,45.9,39.7,17.72,SSW,193,0.0,0.0,79,0.00,,FEW110,0.00,VWS V14.01,2013-05-19 02:51:00,
2013-05-18 22:56:00,45.9,39.7,17.72,SSW,193,0.0,0.0,79,0.00,,FEW110,0.00,VWS V14.01,2013-05-19 02:56:00,
2013-05-18 23:01:00,45.5,39.4,17.72,SSW,193,0.0,0.0,79,0.00,,OVC110,0.00,VWS V14.01,2013-05-19 03:01:00,
2013-05-18 23:06:00,45.3,39.2,17.72,SSW,193,0.0,0.0,79,0.00,,OVC110,0.00,VWS V14.01,2013-05-19 03:06:00,
2013-05-18 23:11:00,45.1,39.3,17.72,SSW,193,0.0,0.0,80,0.00,,OVC110,0.00,VWS V14.01,2013-05-19 03:11:00,
2013-05-18 23:16:00,45.0,39.2,17.72,SSW,193,0.0,0.0,80,0.00,,OVC110,0.00,VWS V14.01,2013-05-19 03:16:00,
2013-05-18 23:21:00,44.8,39.0,17.72,SSW,193,0.0,0.0,80,0.00,,OVC110,0.00,VWS V14.01,2013-05-19 03:21:00,
2013-05-18 23:26:00,44.6,38.8,17.72,SSW,193,0.0,0.0,80,0.00,,OVC110,0.00,VWS V14.01,2013-05-19 03:26:00,
2013-05-18 23:31:00,44.4,39.0,17.72,SSW,193,0.0,0.0,81,0.00,,OVC110,0.00,VWS V14.01,2013-05-19 03:31:00,
2013-05-18 23:36:00,44.2,38.8,17.72,SSW,193,0.0,0.0,81,0.00,,OVC110,0.00,VWS V14.01,2013-05-19 03:36:00,
2013-05-18 23:41:00,44.1,38.6,17.72,SSW,193,0.0,0.0,81,0.00,,OVC110,0.00,VWS V14.01,2013-05-19 03:41:00,
2013-05-18 23:46:00,43.7,38.3,17.72,SSW,193,0.0,0.0,81,0.00,,OVC110,0.00,VWS V14.01,2013-05-19 03:46:00,
2013-05-18 23:51:00,43.7,38.6,17.72,SSW,193,0.0,0.0,82,0.00,,OVC110,0.00,VWS V14.01,2013-05-19 03:51:00,
2013-05-18 23:56:00,43.7,38.6,17.72,SSW,193,0.0,0.0,82,0.00,,OVC110,0.00,VWS V14.01,2013-05-19 03:56:00,